sensor_id;sensor_type;location;lat;lon;timestamp;P1;durP1;ratioP1;P2;durP2;ratioP2
20411;SDS011;10365;52.578;8.138;2022-11-30T00:00:55;33.53;;;14.57;;
20411;SDS011;10365;52.578;8.138;2022-11-30T00:03:20;30.55;;;14.05;;
20411;SDS011;10365;52.578;8.138;2022-11-30T00:05:46;38.85;;;15.40;;
20411;SDS011;10365;52.578;8.138;2022-11-30T00:08:11;34.55;;;14.80;;
20411;SDS011;10365;52.578;8.138;2022-11-30T00:10:37;36.17;;;15.50;;
20411;SDS011;10365;52.578;8.138;2022-11-30T00:13:03;32.28;;;14.13;;
20411;SDS011;10365;52.578;8.138;2022-11-30T00:15:28;40.47;;;15.65;;
20411;SDS011;10365;52.578;8.138;2022-11-30T00:17:57;36.00;;;14.93;;
20411;SDS011;10365;52.578;8.138;2022-11-30T00:20:23;33.85;;;15.18;;
20411;SDS011;10365;52.578;8.138;2022-11-30T00:22:49;35.47;;;14.98;;
20411;SDS011;10365;52.578;8.138;2022-11-30T00:25:14;41.22;;;17.25;;
20411;SDS011;10365;52.578;8.138;2022-11-30T00:27:39;43.15;;;17.48;;
20411;SDS011;10365;52.578;8.138;2022-11-30T00:30:05;37.03;;;17.13;;
20411;SDS011;10365;52.578;8.138;2022-11-30T00:32:31;38.22;;;17.23;;
20411;SDS011;10365;52.578;8.138;2022-11-30T00:34:56;41.05;;;18.05;;
20411;SDS011;10365;52.578;8.138;2022-11-30T00:37:21;38.28;;;17.48;;
20411;SDS011;10365;52.578;8.138;2022-11-30T00:39:48;39.42;;;18.45;;
20411;SDS011;10365;52.578;8.138;2022-11-30T00:42:13;42.65;;;17.25;;
20411;SDS011;10365;52.578;8.138;2022-11-30T00:44:38;41.05;;;17.73;;
20411;SDS011;10365;52.578;8.138;2022-11-30T00:47:04;41.83;;;18.73;;
20411;SDS011;10365;52.578;8.138;2022-11-30T00:49:29;47.35;;;18.85;;
20411;SDS011;10365;52.578;8.138;2022-11-30T00:51:55;42.53;;;17.35;;
20411;SDS011;10365;52.578;8.138;2022-11-30T00:54:20;40.30;;;18.50;;
20411;SDS011;10365;52.578;8.138;2022-11-30T00:56:46;41.53;;;18.20;;
20411;SDS011;10365;52.578;8.138;2022-11-30T00:59:12;44.40;;;18.08;;
20411;SDS011;10365;52.578;8.138;2022-11-30T01:01:37;41.22;;;17.35;;
20411;SDS011;10365;52.578;8.138;2022-11-30T01:04:02;44.45;;;18.17;;
20411;SDS011;10365;52.578;8.138;2022-11-30T01:06:28;42.45;;;18.00;;
20411;SDS011;10365;52.578;8.138;2022-11-30T01:08:53;41.10;;;17.63;;
20411;SDS011;10365;52.578;8.138;2022-11-30T01:11:23;40.67;;;18.92;;
20411;SDS011;10365;52.578;8.138;2022-11-30T01:13:49;36.90;;;18.05;;
20411;SDS011;10365;52.578;8.138;2022-11-30T01:16:15;44.72;;;17.95;;
20411;SDS011;10365;52.578;8.138;2022-11-30T01:18:41;37.10;;;17.42;;
20411;SDS011;10365;52.578;8.138;2022-11-30T01:21:08;37.83;;;18.05;;
20411;SDS011;10365;52.578;8.138;2022-11-30T01:23:34;40.63;;;17.88;;
20411;SDS011;10365;52.578;8.138;2022-11-30T01:25:59;43.80;;;18.48;;
20411;SDS011;10365;52.578;8.138;2022-11-30T01:28:24;34.35;;;16.23;;
20411;SDS011;10365;52.578;8.138;2022-11-30T01:33:22;40.20;;;17.17;;
20411;SDS011;10365;52.578;8.138;2022-11-30T01:35:47;37.25;;;17.60;;
20411;SDS011;10365;52.578;8.138;2022-11-30T01:38:12;35.67;;;17.08;;
20411;SDS011;10365;52.578;8.138;2022-11-30T01:40:38;35.25;;;17.08;;
20411;SDS011;10365;52.578;8.138;2022-11-30T01:43:08;42.95;;;16.92;;
20411;SDS011;10365;52.578;8.138;2022-11-30T01:45:34;39.15;;;16.92;;
20411;SDS011;10365;52.578;8.138;2022-11-30T01:47:59;37.17;;;16.45;;
20411;SDS011;10365;52.578;8.138;2022-11-30T01:50:29;37.88;;;17.35;;
20411;SDS011;10365;52.578;8.138;2022-11-30T01:52:56;37.58;;;16.30;;
20411;SDS011;10365;52.578;8.138;2022-11-30T01:57:51;37.92;;;16.90;;
20411;SDS011;10365;52.578;8.138;2022-11-30T02:00:18;39.63;;;16.83;;
20411;SDS011;10365;52.578;8.138;2022-11-30T02:03:27;38.83;;;17.05;;
20411;SDS011;10365;52.578;8.138;2022-11-30T02:05:35;34.38;;;16.02;;
20411;SDS011;10365;52.578;8.138;2022-11-30T02:08:00;38.42;;;16.73;;
20411;SDS011;10365;52.578;8.138;2022-11-30T02:10:30;43.15;;;17.23;;
20411;SDS011;10365;52.578;8.138;2022-11-30T02:15:34;34.42;;;15.73;;
20411;SDS011;10365;52.578;8.138;2022-11-30T02:18:12;31.90;;;15.50;;
20411;SDS011;10365;52.578;8.138;2022-11-30T02:30:56;35.05;;;16.95;;
20411;SDS011;10365;52.578;8.138;2022-11-30T02:33:24;37.30;;;16.92;;
20411;SDS011;10365;52.578;8.138;2022-11-30T02:35:51;36.40;;;16.90;;
20411;SDS011;10365;52.578;8.138;2022-11-30T02:38:19;31.45;;;15.70;;
20411;SDS011;10365;52.578;8.138;2022-11-30T02:40:45;38.38;;;16.60;;
20411;SDS011;10365;52.578;8.138;2022-11-30T02:43:11;28.08;;;14.95;;
20411;SDS011;10365;52.578;8.138;2022-11-30T02:45:59;36.15;;;15.93;;
20411;SDS011;10365;52.578;8.138;2022-11-30T02:48:36;30.42;;;15.23;;
20411;SDS011;10365;52.578;8.138;2022-11-30T02:51:04;33.72;;;15.77;;
20411;SDS011;10365;52.578;8.138;2022-11-30T02:53:32;29.25;;;14.45;;
20411;SDS011;10365;52.578;8.138;2022-11-30T02:55:57;25.00;;;13.55;;
20411;SDS011;10365;52.578;8.138;2022-11-30T02:58:23;29.88;;;15.13;;
20411;SDS011;10365;52.578;8.138;2022-11-30T03:00:48;29.48;;;15.10;;
20411;SDS011;10365;52.578;8.138;2022-11-30T03:03:14;33.88;;;15.63;;
20411;SDS011;10365;52.578;8.138;2022-11-30T03:05:39;29.63;;;15.43;;
20411;SDS011;10365;52.578;8.138;2022-11-30T03:08:04;28.45;;;14.45;;
20411;SDS011;10365;52.578;8.138;2022-11-30T03:10:30;30.98;;;16.25;;
20411;SDS011;10365;52.578;8.138;2022-11-30T03:12:58;44.13;;;19.35;;
20411;SDS011;10365;52.578;8.138;2022-11-30T03:15:24;49.92;;;20.88;;
20411;SDS011;10365;52.578;8.138;2022-11-30T03:17:50;52.90;;;20.77;;
20411;SDS011;10365;52.578;8.138;2022-11-30T03:20:15;50.90;;;22.48;;
20411;SDS011;10365;52.578;8.138;2022-11-30T03:22:43;52.05;;;21.83;;
20411;SDS011;10365;52.578;8.138;2022-11-30T03:25:08;48.10;;;21.52;;
20411;SDS011;10365;52.578;8.138;2022-11-30T03:27:33;49.13;;;20.52;;
20411;SDS011;10365;52.578;8.138;2022-11-30T03:29:59;64.03;;;25.38;;
20411;SDS011;10365;52.578;8.138;2022-11-30T03:32:24;65.70;;;25.55;;
20411;SDS011;10365;52.578;8.138;2022-11-30T03:34:50;68.78;;;25.13;;
20411;SDS011;10365;52.578;8.138;2022-11-30T03:37:15;66.88;;;24.48;;
20411;SDS011;10365;52.578;8.138;2022-11-30T03:39:41;64.68;;;24.73;;
20411;SDS011;10365;52.578;8.138;2022-11-30T03:42:06;53.55;;;20.63;;
20411;SDS011;10365;52.578;8.138;2022-11-30T03:44:31;55.17;;;21.20;;
20411;SDS011;10365;52.578;8.138;2022-11-30T03:46:57;54.17;;;21.95;;
20411;SDS011;10365;52.578;8.138;2022-11-30T03:49:22;47.15;;;20.00;;
20411;SDS011;10365;52.578;8.138;2022-11-30T03:51:48;46.58;;;19.70;;
20411;SDS011;10365;52.578;8.138;2022-11-30T03:54:13;47.40;;;19.77;;
20411;SDS011;10365;52.578;8.138;2022-11-30T03:56:38;54.25;;;21.48;;
20411;SDS011;10365;52.578;8.138;2022-11-30T03:59:04;49.38;;;19.92;;
20411;SDS011;10365;52.578;8.138;2022-11-30T04:01:29;46.58;;;19.05;;
20411;SDS011;10365;52.578;8.138;2022-11-30T04:03:54;46.95;;;18.77;;
20411;SDS011;10365;52.578;8.138;2022-11-30T04:06:21;38.83;;;18.17;;
20411;SDS011;10365;52.578;8.138;2022-11-30T04:08:46;40.92;;;18.27;;
20411;SDS011;10365;52.578;8.138;2022-11-30T04:11:12;42.70;;;18.52;;
20411;SDS011;10365;52.578;8.138;2022-11-30T04:13:38;43.78;;;18.70;;
20411;SDS011;10365;52.578;8.138;2022-11-30T04:16:04;45.42;;;18.27;;
20411;SDS011;10365;52.578;8.138;2022-11-30T04:18:30;43.65;;;17.83;;
20411;SDS011;10365;52.578;8.138;2022-11-30T04:20:56;41.35;;;18.23;;
20411;SDS011;10365;52.578;8.138;2022-11-30T04:23:22;47.13;;;19.40;;
20411;SDS011;10365;52.578;8.138;2022-11-30T04:25:48;47.88;;;21.25;;
20411;SDS011;10365;52.578;8.138;2022-11-30T04:28:14;47.05;;;21.30;;
20411;SDS011;10365;52.578;8.138;2022-11-30T04:30:47;53.72;;;22.17;;
20411;SDS011;10365;52.578;8.138;2022-11-30T04:33:14;44.35;;;19.48;;
20411;SDS011;10365;52.578;8.138;2022-11-30T04:35:40;49.22;;;20.60;;
20411;SDS011;10365;52.578;8.138;2022-11-30T04:38:06;47.55;;;20.05;;
20411;SDS011;10365;52.578;8.138;2022-11-30T04:40:31;53.60;;;20.58;;
20411;SDS011;10365;52.578;8.138;2022-11-30T04:42:57;46.63;;;20.55;;
20411;SDS011;10365;52.578;8.138;2022-11-30T04:45:22;42.63;;;19.75;;
20411;SDS011;10365;52.578;8.138;2022-11-30T04:47:48;47.78;;;18.88;;
20411;SDS011;10365;52.578;8.138;2022-11-30T04:50:13;45.17;;;18.00;;
20411;SDS011;10365;52.578;8.138;2022-11-30T04:52:38;44.92;;;19.20;;
20411;SDS011;10365;52.578;8.138;2022-11-30T04:55:04;48.80;;;19.00;;
20411;SDS011;10365;52.578;8.138;2022-11-30T04:57:29;44.63;;;19.38;;
20411;SDS011;10365;52.578;8.138;2022-11-30T04:59:55;55.55;;;20.50;;
20411;SDS011;10365;52.578;8.138;2022-11-30T05:02:21;48.92;;;19.50;;
20411;SDS011;10365;52.578;8.138;2022-11-30T05:04:46;48.03;;;19.77;;
20411;SDS011;10365;52.578;8.138;2022-11-30T05:07:11;51.22;;;19.48;;
20411;SDS011;10365;52.578;8.138;2022-11-30T05:09:37;48.90;;;21.20;;
20411;SDS011;10365;52.578;8.138;2022-11-30T05:12:02;47.50;;;19.27;;
20411;SDS011;10365;52.578;8.138;2022-11-30T05:14:28;49.78;;;20.40;;
20411;SDS011;10365;52.578;8.138;2022-11-30T05:16:53;49.22;;;20.55;;
20411;SDS011;10365;52.578;8.138;2022-11-30T05:19:19;61.97;;;23.52;;
20411;SDS011;10365;52.578;8.138;2022-11-30T05:21:44;59.95;;;24.17;;
20411;SDS011;10365;52.578;8.138;2022-11-30T05:24:10;81.43;;;27.58;;
20411;SDS011;10365;52.578;8.138;2022-11-30T05:26:36;82.53;;;28.90;;
20411;SDS011;10365;52.578;8.138;2022-11-30T05:29:02;84.85;;;29.42;;
20411;SDS011;10365;52.578;8.138;2022-11-30T05:31:27;83.70;;;29.80;;
20411;SDS011;10365;52.578;8.138;2022-11-30T05:33:53;89.35;;;30.17;;
20411;SDS011;10365;52.578;8.138;2022-11-30T05:36:19;85.05;;;28.38;;
20411;SDS011;10365;52.578;8.138;2022-11-30T05:38:45;76.03;;;26.00;;
20411;SDS011;10365;52.578;8.138;2022-11-30T05:41:11;74.82;;;26.65;;
20411;SDS011;10365;52.578;8.138;2022-11-30T05:43:36;77.80;;;27.20;;
20411;SDS011;10365;52.578;8.138;2022-11-30T05:46:02;88.30;;;28.98;;
20411;SDS011;10365;52.578;8.138;2022-11-30T05:48:28;84.10;;;27.58;;
20411;SDS011;10365;52.578;8.138;2022-11-30T05:50:54;68.20;;;25.63;;
20411;SDS011;10365;52.578;8.138;2022-11-30T05:53:20;64.80;;;25.65;;
20411;SDS011;10365;52.578;8.138;2022-11-30T05:55:45;78.18;;;25.85;;
20411;SDS011;10365;52.578;8.138;2022-11-30T05:58:10;78.13;;;25.58;;
20411;SDS011;10365;52.578;8.138;2022-11-30T06:00:36;79.50;;;28.42;;
20411;SDS011;10365;52.578;8.138;2022-11-30T06:03:01;89.30;;;30.35;;
20411;SDS011;10365;52.578;8.138;2022-11-30T06:05:27;80.53;;;29.02;;
20411;SDS011;10365;52.578;8.138;2022-11-30T06:07:53;84.13;;;27.98;;
20411;SDS011;10365;52.578;8.138;2022-11-30T06:10:19;77.88;;;28.08;;
20411;SDS011;10365;52.578;8.138;2022-11-30T06:12:46;77.35;;;26.85;;
20411;SDS011;10365;52.578;8.138;2022-11-30T06:15:12;83.07;;;28.17;;
20411;SDS011;10365;52.578;8.138;2022-11-30T06:17:38;66.65;;;23.98;;
20411;SDS011;10365;52.578;8.138;2022-11-30T06:20:04;70.75;;;25.17;;
20411;SDS011;10365;52.578;8.138;2022-11-30T06:22:29;59.83;;;23.10;;
20411;SDS011;10365;52.578;8.138;2022-11-30T06:24:55;61.70;;;23.13;;
20411;SDS011;10365;52.578;8.138;2022-11-30T06:27:21;57.72;;;20.83;;
20411;SDS011;10365;52.578;8.138;2022-11-30T06:29:46;58.45;;;22.10;;
20411;SDS011;10365;52.578;8.138;2022-11-30T06:32:14;55.20;;;21.40;;
20411;SDS011;10365;52.578;8.138;2022-11-30T06:34:39;58.83;;;22.70;;
20411;SDS011;10365;52.578;8.138;2022-11-30T06:37:05;59.70;;;22.45;;
20411;SDS011;10365;52.578;8.138;2022-11-30T06:39:30;62.78;;;20.02;;
20411;SDS011;10365;52.578;8.138;2022-11-30T06:41:56;58.58;;;22.20;;
20411;SDS011;10365;52.578;8.138;2022-11-30T06:44:21;53.40;;;20.92;;
20411;SDS011;10365;52.578;8.138;2022-11-30T06:46:46;63.45;;;21.33;;
20411;SDS011;10365;52.578;8.138;2022-11-30T06:49:12;56.00;;;21.35;;
20411;SDS011;10365;52.578;8.138;2022-11-30T06:51:37;60.58;;;22.23;;
20411;SDS011;10365;52.578;8.138;2022-11-30T06:54:04;57.38;;;21.30;;
20411;SDS011;10365;52.578;8.138;2022-11-30T06:56:30;58.92;;;22.75;;
20411;SDS011;10365;52.578;8.138;2022-11-30T06:58:55;57.20;;;23.73;;
20411;SDS011;10365;52.578;8.138;2022-11-30T07:01:20;55.72;;;23.75;;
20411;SDS011;10365;52.578;8.138;2022-11-30T07:03:46;56.88;;;21.58;;
20411;SDS011;10365;52.578;8.138;2022-11-30T07:06:12;53.05;;;20.20;;
20411;SDS011;10365;52.578;8.138;2022-11-30T07:08:37;55.40;;;20.50;;
20411;SDS011;10365;52.578;8.138;2022-11-30T07:11:03;45.05;;;20.00;;
20411;SDS011;10365;52.578;8.138;2022-11-30T07:13:29;57.55;;;21.77;;
20411;SDS011;10365;52.578;8.138;2022-11-30T07:15:54;60.05;;;21.23;;
20411;SDS011;10365;52.578;8.138;2022-11-30T07:18:20;49.88;;;21.50;;
20411;SDS011;10365;52.578;8.138;2022-11-30T07:20:45;60.20;;;22.50;;
20411;SDS011;10365;52.578;8.138;2022-11-30T07:23:11;70.35;;;24.60;;
20411;SDS011;10365;52.578;8.138;2022-11-30T07:25:57;54.17;;;20.75;;
20411;SDS011;10365;52.578;8.138;2022-11-30T07:28:34;70.97;;;24.20;;
20411;SDS011;10365;52.578;8.138;2022-11-30T07:31:00;52.88;;;20.60;;
20411;SDS011;10365;52.578;8.138;2022-11-30T07:33:26;45.90;;;18.88;;
20411;SDS011;10365;52.578;8.138;2022-11-30T07:35:51;44.47;;;19.08;;
20411;SDS011;10365;52.578;8.138;2022-11-30T07:38:17;54.45;;;18.15;;
20411;SDS011;10365;52.578;8.138;2022-11-30T07:40:42;49.67;;;18.13;;
20411;SDS011;10365;52.578;8.138;2022-11-30T07:43:07;43.70;;;18.45;;
20411;SDS011;10365;52.578;8.138;2022-11-30T07:45:33;46.35;;;18.90;;
20411;SDS011;10365;52.578;8.138;2022-11-30T07:47:58;48.17;;;18.48;;
20411;SDS011;10365;52.578;8.138;2022-11-30T07:50:23;49.55;;;18.35;;
20411;SDS011;10365;52.578;8.138;2022-11-30T07:52:49;70.22;;;20.90;;
20411;SDS011;10365;52.578;8.138;2022-11-30T07:55:14;68.78;;;23.65;;
20411;SDS011;10365;52.578;8.138;2022-11-30T07:57:40;72.75;;;23.48;;
20411;SDS011;10365;52.578;8.138;2022-11-30T08:00:05;72.82;;;24.00;;
20411;SDS011;10365;52.578;8.138;2022-11-30T08:02:37;71.18;;;22.92;;
20411;SDS011;10365;52.578;8.138;2022-11-30T08:05:02;51.08;;;20.42;;
20411;SDS011;10365;52.578;8.138;2022-11-30T08:07:28;54.80;;;19.90;;
20411;SDS011;10365;52.578;8.138;2022-11-30T08:09:53;56.22;;;20.90;;
20411;SDS011;10365;52.578;8.138;2022-11-30T08:12:19;48.17;;;18.48;;
20411;SDS011;10365;52.578;8.138;2022-11-30T08:14:44;48.80;;;19.50;;
20411;SDS011;10365;52.578;8.138;2022-11-30T08:17:10;42.03;;;18.30;;
20411;SDS011;10365;52.578;8.138;2022-11-30T08:19:35;42.97;;;17.02;;
20411;SDS011;10365;52.578;8.138;2022-11-30T08:22:02;52.40;;;18.00;;
20411;SDS011;10365;52.578;8.138;2022-11-30T08:24:27;55.92;;;20.48;;
20411;SDS011;10365;52.578;8.138;2022-11-30T08:26:53;46.55;;;18.17;;
20411;SDS011;10365;52.578;8.138;2022-11-30T08:29:18;46.55;;;17.30;;
20411;SDS011;10365;52.578;8.138;2022-11-30T08:31:43;45.65;;;16.85;;
20411;SDS011;10365;52.578;8.138;2022-11-30T08:34:10;41.20;;;18.33;;
20411;SDS011;10365;52.578;8.138;2022-11-30T08:36:36;45.45;;;18.15;;
20411;SDS011;10365;52.578;8.138;2022-11-30T08:39:02;41.28;;;17.13;;
20411;SDS011;10365;52.578;8.138;2022-11-30T08:41:29;44.30;;;18.30;;
20411;SDS011;10365;52.578;8.138;2022-11-30T08:43:54;37.60;;;16.80;;
20411;SDS011;10365;52.578;8.138;2022-11-30T08:46:21;46.63;;;18.25;;
20411;SDS011;10365;52.578;8.138;2022-11-30T08:48:47;42.63;;;17.75;;
20411;SDS011;10365;52.578;8.138;2022-11-30T08:51:13;46.72;;;18.65;;
20411;SDS011;10365;52.578;8.138;2022-11-30T08:53:39;48.60;;;20.27;;
20411;SDS011;10365;52.578;8.138;2022-11-30T08:56:05;43.97;;;17.83;;
20411;SDS011;10365;52.578;8.138;2022-11-30T08:58:35;50.90;;;17.30;;
20411;SDS011;10365;52.578;8.138;2022-11-30T09:01:07;42.75;;;17.05;;
20411;SDS011;10365;52.578;8.138;2022-11-30T09:03:33;48.42;;;17.25;;
20411;SDS011;10365;52.578;8.138;2022-11-30T09:06:02;39.42;;;16.92;;
20411;SDS011;10365;52.578;8.138;2022-11-30T09:08:29;53.22;;;17.45;;
20411;SDS011;10365;52.578;8.138;2022-11-30T09:10:55;45.85;;;16.73;;
20411;SDS011;10365;52.578;8.138;2022-11-30T09:13:20;44.85;;;17.00;;
20411;SDS011;10365;52.578;8.138;2022-11-30T09:15:52;44.03;;;17.05;;
20411;SDS011;10365;52.578;8.138;2022-11-30T09:18:18;41.05;;;17.38;;
20411;SDS011;10365;52.578;8.138;2022-11-30T09:20:43;49.75;;;17.75;;
20411;SDS011;10365;52.578;8.138;2022-11-30T09:23:08;53.55;;;18.13;;
20411;SDS011;10365;52.578;8.138;2022-11-30T09:25:35;50.55;;;18.23;;
20411;SDS011;10365;52.578;8.138;2022-11-30T09:28:00;61.25;;;20.20;;
20411;SDS011;10365;52.578;8.138;2022-11-30T09:30:25;49.58;;;19.20;;
20411;SDS011;10365;52.578;8.138;2022-11-30T09:32:51;49.25;;;17.83;;
20411;SDS011;10365;52.578;8.138;2022-11-30T09:35:16;52.40;;;18.10;;
20411;SDS011;10365;52.578;8.138;2022-11-30T09:37:42;55.50;;;18.52;;
20411;SDS011;10365;52.578;8.138;2022-11-30T09:40:09;57.13;;;18.55;;
20411;SDS011;10365;52.578;8.138;2022-11-30T09:49:54;52.10;;;18.63;;
20411;SDS011;10365;52.578;8.138;2022-11-30T09:52:25;70.55;;;19.20;;
20411;SDS011;10365;52.578;8.138;2022-11-30T09:54:56;74.72;;;21.48;;
20411;SDS011;10365;52.578;8.138;2022-11-30T09:59:54;71.75;;;22.30;;
20411;SDS011;10365;52.578;8.138;2022-11-30T10:02:20;81.45;;;22.08;;
20411;SDS011;10365;52.578;8.138;2022-11-30T10:04:48;70.32;;;21.98;;
20411;SDS011;10365;52.578;8.138;2022-11-30T10:07:59;79.35;;;22.42;;
20411;SDS011;10365;52.578;8.138;2022-11-30T10:12:29;103.40;;;27.55;;
20411;SDS011;10365;52.578;8.138;2022-11-30T10:14:59;112.45;;;29.20;;
20411;SDS011;10365;52.578;8.138;2022-11-30T10:18:11;109.35;;;28.58;;
20411;SDS011;10365;52.578;8.138;2022-11-30T10:23:06;124.70;;;30.98;;
20411;SDS011;10365;52.578;8.138;2022-11-30T10:30:43;122.30;;;29.95;;
20411;SDS011;10365;52.578;8.138;2022-11-30T10:33:12;151.57;;;33.22;;
20411;SDS011;10365;52.578;8.138;2022-11-30T10:35:44;150.57;;;32.97;;
20411;SDS011;10365;52.578;8.138;2022-11-30T10:40:43;158.68;;;34.58;;
20411;SDS011;10365;52.578;8.138;2022-11-30T10:45:46;154.50;;;33.47;;
20411;SDS011;10365;52.578;8.138;2022-11-30T10:48:19;154.73;;;34.97;;
20411;SDS011;10365;52.578;8.138;2022-11-30T10:50:46;141.60;;;34.65;;
20411;SDS011;10365;52.578;8.138;2022-11-30T10:53:12;166.20;;;32.13;;
20411;SDS011;10365;52.578;8.138;2022-11-30T10:55:42;149.18;;;33.50;;
20411;SDS011;10365;52.578;8.138;2022-11-30T10:58:27;162.27;;;36.42;;
20411;SDS011;10365;52.578;8.138;2022-11-30T11:00:57;146.73;;;36.05;;
20411;SDS011;10365;52.578;8.138;2022-11-30T11:03:25;143.07;;;36.65;;
20411;SDS011;10365;52.578;8.138;2022-11-30T11:08:31;139.85;;;40.17;;
20411;SDS011;10365;52.578;8.138;2022-11-30T11:10:57;123.78;;;34.60;;
20411;SDS011;10365;52.578;8.138;2022-11-30T11:13:36;139.50;;;35.70;;
20411;SDS011;10365;52.578;8.138;2022-11-30T11:16:06;136.13;;;35.67;;
20411;SDS011;10365;52.578;8.138;2022-11-30T11:18:32;143.80;;;35.58;;
20411;SDS011;10365;52.578;8.138;2022-11-30T11:20:59;149.95;;;39.17;;
20411;SDS011;10365;52.578;8.138;2022-11-30T11:25:56;152.77;;;37.58;;
20411;SDS011;10365;52.578;8.138;2022-11-30T11:28:21;160.68;;;38.78;;
20411;SDS011;10365;52.578;8.138;2022-11-30T11:30:49;147.05;;;38.78;;
20411;SDS011;10365;52.578;8.138;2022-11-30T11:35:43;151.52;;;38.15;;
20411;SDS011;10365;52.578;8.138;2022-11-30T11:41:09;169.52;;;40.30;;
20411;SDS011;10365;52.578;8.138;2022-11-30T11:46:18;170.52;;;38.38;;
20411;SDS011;10365;52.578;8.138;2022-11-30T11:51:32;167.55;;;38.72;;
20411;SDS011;10365;52.578;8.138;2022-11-30T11:53:57;176.00;;;41.78;;
20411;SDS011;10365;52.578;8.138;2022-11-30T11:56:26;170.98;;;40.70;;
20411;SDS011;10365;52.578;8.138;2022-11-30T12:04:04;194.73;;;42.75;;
20411;SDS011;10365;52.578;8.138;2022-11-30T12:06:31;177.65;;;41.17;;
20411;SDS011;10365;52.578;8.138;2022-11-30T12:09:12;169.93;;;42.33;;
20411;SDS011;10365;52.578;8.138;2022-11-30T12:11:41;188.10;;;41.53;;
20411;SDS011;10365;52.578;8.138;2022-11-30T12:14:11;170.43;;;39.65;;
20411;SDS011;10365;52.578;8.138;2022-11-30T12:16:39;186.18;;;41.95;;
20411;SDS011;10365;52.578;8.138;2022-11-30T12:26:40;152.90;;;39.50;;
20411;SDS011;10365;52.578;8.138;2022-11-30T12:32:04;163.18;;;40.08;;
20411;SDS011;10365;52.578;8.138;2022-11-30T13:03:34;131.63;;;35.53;;
20411;SDS011;10365;52.578;8.138;2022-11-30T13:06:06;117.45;;;32.70;;
20411;SDS011;10365;52.578;8.138;2022-11-30T13:11:10;121.55;;;33.35;;
20411;SDS011;10365;52.578;8.138;2022-11-30T13:13:36;117.43;;;32.13;;
20411;SDS011;10365;52.578;8.138;2022-11-30T13:16:05;107.88;;;31.63;;
20411;SDS011;10365;52.578;8.138;2022-11-30T13:18:32;97.75;;;29.33;;
20411;SDS011;10365;52.578;8.138;2022-11-30T13:23:41;98.90;;;29.77;;
20411;SDS011;10365;52.578;8.138;2022-11-30T13:26:20;101.22;;;29.48;;
20411;SDS011;10365;52.578;8.138;2022-11-30T13:29:52;102.40;;;29.67;;
20411;SDS011;10365;52.578;8.138;2022-11-30T13:34:22;103.35;;;29.77;;
20411;SDS011;10365;52.578;8.138;2022-11-30T13:36:49;96.32;;;28.27;;
20411;SDS011;10365;52.578;8.138;2022-11-30T13:39:24;106.70;;;30.00;;
20411;SDS011;10365;52.578;8.138;2022-11-30T13:42:09;94.15;;;28.02;;
20411;SDS011;10365;52.578;8.138;2022-11-30T13:44:36;92.90;;;28.48;;
20411;SDS011;10365;52.578;8.138;2022-11-30T13:47:36;100.22;;;27.60;;
20411;SDS011;10365;52.578;8.138;2022-11-30T13:49:55;102.72;;;27.90;;
20411;SDS011;10365;52.578;8.138;2022-11-30T13:53:04;114.63;;;31.65;;
20411;SDS011;10365;52.578;8.138;2022-11-30T13:55:35;99.95;;;29.42;;
20411;SDS011;10365;52.578;8.138;2022-11-30T14:05:34;110.55;;;29.30;;
20411;SDS011;10365;52.578;8.138;2022-11-30T14:15:28;108.88;;;30.63;;
20411;SDS011;10365;52.578;8.138;2022-11-30T14:17:58;118.72;;;30.23;;
20411;SDS011;10365;52.578;8.138;2022-11-30T14:20:30;110.60;;;31.58;;
20411;SDS011;10365;52.578;8.138;2022-11-30T14:22:57;119.50;;;31.15;;
20411;SDS011;10365;52.578;8.138;2022-11-30T14:25:27;115.82;;;31.00;;
20411;SDS011;10365;52.578;8.138;2022-11-30T14:27:52;109.70;;;29.85;;
20411;SDS011;10365;52.578;8.138;2022-11-30T14:30:20;119.85;;;31.20;;
20411;SDS011;10365;52.578;8.138;2022-11-30T14:32:48;112.85;;;28.48;;
20411;SDS011;10365;52.578;8.138;2022-11-30T14:35:16;111.28;;;29.85;;
20411;SDS011;10365;52.578;8.138;2022-11-30T14:37:45;119.85;;;31.50;;
20411;SDS011;10365;52.578;8.138;2022-11-30T14:40:15;130.15;;;33.80;;
20411;SDS011;10365;52.578;8.138;2022-11-30T14:42:45;143.00;;;34.55;;
20411;SDS011;10365;52.578;8.138;2022-11-30T14:45:17;131.82;;;35.22;;
20411;SDS011;10365;52.578;8.138;2022-11-30T14:47:43;135.30;;;36.20;;
20411;SDS011;10365;52.578;8.138;2022-11-30T14:50:10;135.35;;;37.05;;
20411;SDS011;10365;52.578;8.138;2022-11-30T14:55:30;134.45;;;36.30;;
20411;SDS011;10365;52.578;8.138;2022-11-30T15:00:29;154.63;;;40.10;;
20411;SDS011;10365;52.578;8.138;2022-11-30T15:03:00;155.30;;;41.00;;
20411;SDS011;10365;52.578;8.138;2022-11-30T15:05:28;156.85;;;40.67;;
20411;SDS011;10365;52.578;8.138;2022-11-30T15:07:54;150.40;;;41.70;;
20411;SDS011;10365;52.578;8.138;2022-11-30T15:10:27;167.45;;;41.08;;
20411;SDS011;10365;52.578;8.138;2022-11-30T15:12:55;179.82;;;39.63;;
20411;SDS011;10365;52.578;8.138;2022-11-30T15:15:21;162.50;;;38.97;;
20411;SDS011;10365;52.578;8.138;2022-11-30T15:17:51;166.50;;;39.90;;
20411;SDS011;10365;52.578;8.138;2022-11-30T15:20:19;163.73;;;38.90;;
20411;SDS011;10365;52.578;8.138;2022-11-30T15:22:46;160.05;;;38.08;;
20411;SDS011;10365;52.578;8.138;2022-11-30T15:25:12;157.65;;;36.97;;
20411;SDS011;10365;52.578;8.138;2022-11-30T15:27:38;150.70;;;35.75;;
20411;SDS011;10365;52.578;8.138;2022-11-30T15:30:04;151.27;;;37.33;;
20411;SDS011;10365;52.578;8.138;2022-11-30T15:32:29;147.40;;;33.58;;
20411;SDS011;10365;52.578;8.138;2022-11-30T15:34:56;140.07;;;33.85;;
20411;SDS011;10365;52.578;8.138;2022-11-30T15:39:54;139.88;;;35.75;;
20411;SDS011;10365;52.578;8.138;2022-11-30T15:42:29;131.73;;;32.40;;
20411;SDS011;10365;52.578;8.138;2022-11-30T15:47:41;139.43;;;34.90;;
20411;SDS011;10365;52.578;8.138;2022-11-30T15:52:50;127.40;;;33.45;;
20411;SDS011;10365;52.578;8.138;2022-11-30T15:58:01;122.53;;;33.45;;
20411;SDS011;10365;52.578;8.138;2022-11-30T16:00:27;143.50;;;34.00;;
20411;SDS011;10365;52.578;8.138;2022-11-30T16:03:09;136.05;;;35.28;;
20411;SDS011;10365;52.578;8.138;2022-11-30T16:05:36;161.88;;;38.45;;
20411;SDS011;10365;52.578;8.138;2022-11-30T16:08:02;137.75;;;35.50;;
20411;SDS011;10365;52.578;8.138;2022-11-30T16:12:53;138.90;;;37.35;;
20411;SDS011;10365;52.578;8.138;2022-11-30T16:15:28;154.98;;;36.60;;
20411;SDS011;10365;52.578;8.138;2022-11-30T16:20:31;141.88;;;36.25;;
20411;SDS011;10365;52.578;8.138;2022-11-30T16:22:57;151.90;;;37.22;;
20411;SDS011;10365;52.578;8.138;2022-11-30T16:25:23;143.80;;;37.15;;
20411;SDS011;10365;52.578;8.138;2022-11-30T16:27:49;139.80;;;36.10;;
20411;SDS011;10365;52.578;8.138;2022-11-30T16:30:16;139.98;;;35.63;;
20411;SDS011;10365;52.578;8.138;2022-11-30T16:32:41;143.40;;;36.92;;
20411;SDS011;10365;52.578;8.138;2022-11-30T16:35:24;154.80;;;38.65;;
20411;SDS011;10365;52.578;8.138;2022-11-30T16:37:50;171.75;;;40.17;;
20411;SDS011;10365;52.578;8.138;2022-11-30T16:40:16;150.73;;;39.63;;
20411;SDS011;10365;52.578;8.138;2022-11-30T16:42:41;160.55;;;39.17;;
20411;SDS011;10365;52.578;8.138;2022-11-30T16:45:14;155.15;;;38.60;;
20411;SDS011;10365;52.578;8.138;2022-11-30T16:47:41;155.93;;;37.78;;